createdAt,value
2018-05-03T00:01:56.490Z,1.43
2018-05-03T00:04:23.936Z,1.30
2018-05-03T00:06:51.426Z,1.20
2018-05-03T00:09:18.899Z,1.47
2018-05-03T00:11:46.377Z,1.13
2018-05-03T00:14:13.879Z,1.00
2018-05-03T00:16:41.363Z,1.07
2018-05-03T00:19:09.592Z,1.03
2018-05-03T00:21:37.075Z,0.93
2018-05-03T00:24:04.550Z,0.80
2018-05-03T00:26:32.031Z,1.03
2018-05-03T00:28:59.492Z,0.73
2018-05-03T00:31:26.963Z,0.93
2018-05-03T00:33:54.419Z,0.70
2018-05-03T00:36:21.924Z,0.90
2018-05-03T00:38:49.426Z,1.27
2018-05-03T00:41:17.683Z,0.80
2018-05-03T00:43:45.160Z,0.80
2018-05-03T00:46:12.665Z,1.27
2018-05-03T00:48:40.969Z,0.73
2018-05-03T00:51:08.460Z,0.97
2018-05-03T00:53:35.940Z,0.87
2018-05-03T00:56:03.427Z,0.73
2018-05-03T00:58:32.411Z,0.87
2018-05-03T01:00:59.906Z,0.73
2018-05-03T01:03:27.375Z,0.70
2018-05-03T01:05:54.887Z,0.87
2018-05-03T01:08:23.107Z,0.80
2018-05-03T01:10:50.608Z,0.90
2018-05-03T01:13:18.072Z,0.77
2018-05-03T01:15:45.551Z,0.77
2018-05-03T01:18:13.025Z,1.20
2018-05-03T01:20:40.500Z,0.93
2018-05-03T01:23:08.003Z,0.60
2018-05-03T01:25:35.489Z,0.63
2018-05-03T01:28:02.953Z,0.90
2018-05-03T01:30:30.735Z,1.10
2018-05-03T01:32:59.044Z,0.80
2018-05-03T01:35:38.541Z,0.80
2018-05-03T01:38:06.034Z,1.10
2018-05-03T01:40:33.513Z,1.10
2018-05-03T01:43:00.999Z,1.00
2018-05-03T01:45:28.472Z,1.00
2018-05-03T01:47:55.966Z,1.10
2018-05-03T01:50:23.451Z,1.27
2018-05-03T01:52:50.948Z,1.00
2018-05-03T01:55:19.221Z,0.80
2018-05-03T01:57:46.695Z,0.80
2018-05-03T02:00:14.213Z,1.17
2018-05-03T02:02:41.699Z,1.00
2018-05-03T02:05:09.159Z,1.00
2018-05-03T02:07:36.656Z,0.90
2018-05-03T02:10:04.135Z,0.90
2018-05-03T02:12:31.716Z,0.90
2018-05-03T02:14:59.187Z,1.33
2018-05-03T02:17:26.667Z,1.00
2018-05-03T02:19:54.909Z,1.50
2018-05-03T02:22:22.399Z,1.10
2018-05-03T02:24:49.856Z,0.97
2018-05-03T02:27:17.368Z,1.00
2018-05-03T02:29:44.862Z,1.23
2018-05-03T02:32:12.339Z,1.10
2018-05-03T02:34:39.809Z,1.40
2018-05-03T02:37:07.308Z,1.10
2018-05-03T02:39:34.800Z,1.20
2018-05-03T02:42:02.267Z,0.97
2018-05-03T02:44:29.757Z,1.00
2018-05-03T02:46:57.237Z,1.30
2018-05-03T02:49:24.716Z,1.00
2018-05-03T02:51:52.973Z,1.30
2018-05-03T02:54:20.496Z,0.90
2018-05-03T02:56:47.999Z,1.10
2018-05-03T02:59:27.340Z,1.33
2018-05-03T03:02:00.367Z,0.97
2018-05-03T03:04:45.428Z,1.03
2018-05-03T03:11:07.959Z,0.93
2018-05-03T03:13:52.997Z,0.83
2018-05-03T03:16:37.991Z,0.73
2018-05-03T03:19:23.234Z,0.93
2018-05-03T03:25:28.671Z,1.20
2018-05-03T03:28:13.815Z,1.00
2018-05-03T03:30:59.721Z,1.80
2018-05-03T03:33:39.101Z,0.90
2018-05-03T03:39:22.170Z,1.23
2018-05-03T03:41:49.892Z,1.40
2018-05-03T03:44:29.196Z,1.60
2018-05-03T03:46:56.692Z,1.50
2018-05-03T03:49:24.181Z,1.17
2018-05-03T03:51:51.697Z,1.50
2018-05-03T03:54:19.296Z,1.50
2018-05-03T03:56:46.829Z,1.67
2018-05-03T03:59:14.351Z,1.40
2018-05-03T04:01:42.562Z,1.27
2018-05-03T04:04:10.029Z,1.37
2018-05-03T04:06:37.503Z,1.37
2018-05-03T04:09:04.966Z,1.43
2018-05-03T04:11:32.527Z,1.23
2018-05-03T04:14:00.014Z,1.53
2018-05-03T04:16:27.488Z,1.60
2018-05-03T04:19:06.909Z,1.70
2018-05-03T04:21:46.376Z,1.67
2018-05-03T04:24:25.624Z,1.20
2018-05-03T04:26:53.119Z,1.40
2018-05-03T04:29:20.675Z,1.60
2018-05-03T04:31:48.363Z,1.80
2018-05-03T04:34:16.659Z,1.90
2018-05-03T04:36:44.893Z,1.90
2018-05-03T04:39:12.378Z,1.60
2018-05-03T04:41:39.861Z,1.40
2018-05-03T04:44:07.361Z,1.57
2018-05-03T04:46:34.831Z,1.30
2018-05-03T04:49:02.312Z,1.40
2018-05-03T04:51:29.771Z,1.57
2018-05-03T04:53:57.287Z,1.23
2018-05-03T04:56:24.764Z,1.50
2018-05-03T04:58:52.339Z,1.30
2018-05-03T05:01:19.872Z,1.27
2018-05-03T05:03:48.156Z,1.20
2018-05-03T05:06:15.630Z,1.43
2018-05-03T05:08:43.109Z,1.33
2018-05-03T05:11:10.595Z,1.60
2018-05-03T05:13:38.908Z,1.30
2018-05-03T05:16:06.380Z,1.37
2018-05-03T05:18:33.899Z,1.20
2018-05-03T05:21:01.355Z,1.70
2018-05-03T05:23:28.835Z,1.37
2018-05-03T05:25:56.307Z,1.60
2018-05-03T05:28:23.835Z,1.30
2018-05-03T05:30:51.324Z,1.60
2018-05-03T05:33:18.937Z,1.80
2018-05-03T05:35:46.402Z,1.80
2018-05-03T05:38:13.893Z,1.40
2018-05-03T05:40:42.141Z,1.43
2018-05-03T05:43:09.639Z,1.50
2018-05-03T05:45:37.237Z,2.03
2018-05-03T05:48:05.483Z,1.67
2018-05-03T05:50:32.967Z,1.70
2018-05-03T05:53:00.479Z,1.70
2018-05-03T05:55:28.015Z,1.97
2018-05-03T05:57:55.783Z,1.70
2018-05-03T06:00:23.417Z,1.80
2018-05-03T06:02:50.907Z,1.67
2018-05-03T06:05:18.395Z,1.70
2018-05-03T06:07:45.856Z,1.50
2018-05-03T06:10:13.351Z,1.80
2018-05-03T06:12:40.856Z,1.43
2018-05-03T06:15:08.350Z,1.40
2018-05-03T06:17:35.826Z,1.60
2018-05-03T06:20:03.343Z,1.80
2018-05-03T06:22:30.881Z,1.47
2018-05-03T06:24:58.400Z,1.60
2018-05-03T06:27:25.891Z,1.43
2018-05-03T06:29:53.470Z,1.67
2018-05-03T06:32:20.934Z,1.87
2018-05-03T06:34:48.443Z,1.73
2018-05-03T06:37:15.936Z,1.43
2018-05-03T06:39:43.416Z,1.50
2018-05-03T06:42:11.657Z,1.77
2018-05-03T06:44:39.208Z,1.87
2018-05-03T06:47:06.743Z,1.83
2018-05-03T06:49:34.189Z,1.83
2018-05-03T06:52:01.672Z,1.60
2018-05-03T06:54:29.155Z,1.97
2018-05-03T06:56:56.615Z,1.30
2018-05-03T06:59:24.187Z,1.90
2018-05-03T07:01:51.661Z,1.87
2018-05-03T07:04:19.195Z,1.70
2018-05-03T07:06:46.664Z,2.13
2018-05-03T07:09:14.131Z,1.67
2018-05-03T07:11:41.607Z,1.83
2018-05-03T07:14:09.067Z,2.17
2018-05-03T07:16:36.548Z,1.67
2018-05-03T07:19:04.019Z,2.10
2018-05-03T07:21:31.498Z,1.60
2018-05-03T07:23:58.973Z,2.03
2018-05-03T07:26:26.451Z,2.10
2018-05-03T07:28:53.964Z,2.30
2018-05-03T07:31:22.226Z,2.00
2018-05-03T07:33:49.801Z,1.80
2018-05-03T07:36:17.281Z,2.03
2018-05-03T07:38:44.841Z,2.23
2018-05-03T07:41:13.162Z,1.90
2018-05-03T07:43:40.700Z,2.13
2018-05-03T07:46:08.205Z,2.03
2018-05-03T07:48:36.501Z,2.47
2018-05-03T07:51:03.929Z,2.67
2018-05-03T07:53:31.411Z,2.40
2018-05-03T07:55:58.912Z,2.30
2018-05-03T07:58:26.434Z,2.67
2018-05-03T08:00:53.931Z,2.80
2018-05-03T08:03:21.480Z,2.63
2018-05-03T08:05:48.980Z,2.43
2018-05-03T08:08:16.449Z,2.20
2018-05-03T08:10:43.928Z,2.90
2018-05-03T08:13:12.165Z,2.50
2018-05-03T08:15:39.669Z,2.63
2018-05-03T08:18:07.146Z,2.47
2018-05-03T08:20:34.639Z,2.60
2018-05-03T08:23:02.119Z,2.47
2018-05-03T08:25:29.707Z,2.80
2018-05-03T08:27:57.171Z,2.43
2018-05-03T08:30:24.698Z,2.23
2018-05-03T08:32:52.177Z,2.40
2018-05-03T08:35:20.437Z,2.37
2018-05-03T08:37:48.676Z,2.03
2018-05-03T08:40:16.166Z,2.80
2018-05-03T08:42:43.636Z,2.47
2018-05-03T08:45:11.123Z,2.37
2018-05-03T08:47:38.972Z,2.27
2018-05-03T08:50:07.336Z,2.33
2018-05-03T08:52:34.893Z,2.30
2018-05-03T08:55:02.471Z,1.80
2018-05-03T08:57:29.933Z,2.03
2018-05-03T08:59:57.412Z,1.70
2018-05-03T09:02:24.887Z,2.13
2018-05-03T09:04:52.369Z,1.80
2018-05-03T09:07:20.620Z,1.70
2018-05-03T09:09:48.108Z,1.60
2018-05-03T09:12:15.716Z,1.60
2018-05-03T09:14:43.973Z,1.30
2018-05-03T09:17:11.468Z,1.53
2018-05-03T09:19:39.725Z,1.80
2018-05-03T09:22:07.212Z,2.03
2018-05-03T09:24:34.671Z,1.57
2018-05-03T09:27:02.175Z,1.70
2018-05-03T09:29:30.404Z,1.60
2018-05-03T09:31:57.908Z,1.50
2018-05-03T09:34:25.367Z,2.03
2018-05-03T09:36:52.863Z,1.90
2018-05-03T09:39:20.348Z,2.50
2018-05-03T09:41:48.603Z,2.00
2018-05-03T09:44:16.129Z,2.37
2018-05-03T09:46:43.724Z,2.30
2018-05-03T09:49:11.214Z,2.80
2018-05-03T09:51:38.705Z,2.30
2018-05-03T09:54:07.676Z,2.70
2018-05-03T09:56:35.171Z,2.43
2018-05-03T09:59:02.712Z,2.93
2018-05-03T10:01:30.183Z,2.00
2018-05-03T10:03:57.645Z,2.20
2018-05-03T10:06:25.120Z,2.00
2018-05-03T10:08:52.583Z,2.70
2018-05-03T10:11:20.121Z,2.23
2018-05-03T10:13:48.359Z,2.73
2018-05-03T10:16:15.845Z,2.10
2018-05-03T10:18:43.448Z,2.50
2018-05-03T10:21:10.927Z,2.83
2018-05-03T10:23:39.156Z,2.90
2018-05-03T10:26:06.645Z,2.40
2018-05-03T10:28:34.124Z,2.60
2018-05-03T10:31:01.624Z,2.90
2018-05-03T10:33:29.088Z,2.60
2018-05-03T10:35:56.575Z,2.28
2018-05-03T10:38:24.824Z,2.60
2018-05-03T10:40:52.324Z,2.65
2018-05-03T10:43:20.565Z,2.45
2018-05-03T10:45:48.215Z,2.30
2018-05-03T10:48:15.753Z,2.45
2018-05-03T10:50:43.263Z,2.33
2018-05-03T10:53:10.744Z,2.45
2018-05-03T10:55:38.212Z,2.80
2018-05-03T10:58:05.694Z,2.85
2018-05-03T11:00:33.163Z,3.00
2018-05-03T11:03:00.661Z,3.15
2018-05-03T11:05:28.148Z,2.17
2018-05-03T11:07:55.650Z,2.97
2018-05-03T11:10:23.152Z,2.65
2018-05-03T11:12:50.667Z,2.10
2018-05-03T11:15:18.908Z,2.22
2018-05-03T11:17:46.385Z,1.98
2018-05-03T11:20:13.863Z,2.25
2018-05-03T11:22:41.339Z,1.98
2018-05-03T11:25:08.807Z,2.17
2018-05-03T11:27:36.294Z,2.47
2018-05-03T11:30:03.756Z,3.03
2018-05-03T11:32:31.265Z,2.50
2018-05-03T11:34:59.503Z,2.70
2018-05-03T11:37:27.005Z,2.17
2018-05-03T11:39:54.480Z,2.75
2018-05-03T11:42:21.982Z,2.70
2018-05-03T11:44:49.479Z,2.15
2018-05-03T11:47:16.975Z,2.30
2018-05-03T11:49:44.439Z,2.62
2018-05-03T11:52:12.016Z,2.58
2018-05-03T11:54:39.487Z,2.20
2018-05-03T11:57:06.971Z,2.10
2018-05-03T11:59:34.422Z,2.25
2018-05-03T12:02:02.669Z,1.87
2018-05-03T12:04:30.919Z,2.00
2018-05-03T12:06:59.192Z,2.22
2018-05-03T12:09:26.658Z,2.47
2018-05-03T12:11:54.178Z,2.25
2018-05-03T12:14:22.421Z,2.40
2018-05-03T12:16:49.931Z,2.67
2018-05-03T12:19:17.404Z,2.47
2018-05-03T12:21:45.818Z,2.28
2018-05-03T12:24:13.297Z,2.22
2018-05-03T12:26:40.809Z,2.70
2018-05-03T12:29:09.046Z,2.30
2018-05-03T12:31:36.542Z,1.87
2018-05-03T12:34:04.004Z,2.40
2018-05-03T12:36:31.520Z,2.87
2018-05-03T12:38:59.019Z,3.20
2018-05-03T12:41:27.266Z,2.58
2018-05-03T12:43:54.741Z,2.75
2018-05-03T12:46:22.269Z,2.67
2018-05-03T12:48:49.775Z,2.47
2018-05-03T12:51:17.244Z,2.45
2018-05-03T12:53:44.714Z,2.67
2018-05-03T12:56:12.246Z,3.12
2018-05-03T12:58:39.750Z,2.90
2018-05-03T13:01:07.289Z,3.05
2018-05-03T13:03:34.798Z,3.12
2018-05-03T13:06:02.273Z,2.53
2018-05-03T13:08:29.748Z,2.55
2018-05-03T13:10:57.319Z,3.15
2018-05-03T13:13:24.803Z,2.65
2018-05-03T13:15:52.329Z,2.45
2018-05-03T13:18:19.823Z,2.67
2018-05-03T13:20:47.444Z,2.12
2018-05-03T13:23:15.694Z,2.80
2018-05-03T13:25:43.154Z,2.85
2018-05-03T13:28:10.646Z,1.98
2018-05-03T13:30:38.123Z,2.80
2018-05-03T13:33:05.603Z,2.08
2018-05-03T13:35:33.059Z,2.50
2018-05-03T13:38:00.547Z,2.67
2018-05-03T13:40:28.014Z,2.40
2018-05-03T13:42:55.514Z,2.20
2018-05-03T13:45:23.000Z,1.95
2018-05-03T13:47:50.491Z,2.30
2018-05-03T13:50:17.960Z,1.90
2018-05-03T13:52:45.449Z,2.05
2018-05-03T13:55:12.922Z,1.98
2018-05-03T13:57:40.443Z,1.90
2018-05-03T14:00:08.677Z,2.00
2018-05-03T14:02:36.168Z,1.80
2018-05-03T14:05:03.648Z,1.67
2018-05-03T14:07:31.187Z,1.90
2018-05-03T14:09:58.624Z,1.50
2018-05-03T14:12:26.217Z,1.62
2018-05-03T14:14:53.695Z,1.73
2018-05-03T14:17:21.199Z,2.08
2018-05-03T14:19:48.830Z,1.87
2018-05-03T14:22:16.319Z,1.75
2018-05-03T14:24:43.785Z,1.52
2018-05-03T14:27:11.304Z,1.40
2018-05-03T14:29:38.749Z,1.63
2018-05-03T14:32:06.218Z,1.55
2018-05-03T14:34:33.696Z,1.37
2018-05-03T14:37:01.163Z,1.12
2018-05-03T14:39:28.655Z,0.90
2018-05-03T14:41:56.976Z,1.20
2018-05-03T14:44:24.407Z,1.40
2018-05-03T14:46:51.870Z,1.27
2018-05-03T14:49:19.339Z,1.10
2018-05-03T14:51:46.805Z,1.25
2018-05-03T14:54:14.353Z,1.20
2018-05-03T14:56:41.834Z,1.50
2018-05-03T14:59:09.341Z,1.12
2018-05-03T15:01:37.609Z,1.23
2018-05-03T15:04:05.100Z,1.20
2018-05-03T15:06:33.379Z,1.07
2018-05-03T15:09:00.825Z,0.95
2018-05-03T15:11:28.288Z,1.20
2018-05-03T15:13:55.764Z,1.25
2018-05-03T15:16:23.350Z,0.90
2018-05-03T15:18:51.111Z,1.30
2018-05-03T15:21:18.592Z,0.83
2018-05-03T15:23:46.875Z,1.10
2018-05-03T15:26:14.340Z,0.93
2018-05-03T15:28:41.822Z,0.88
2018-05-03T15:31:09.292Z,1.00
2018-05-03T15:33:36.788Z,0.90
2018-05-03T15:36:04.275Z,0.90
2018-05-03T15:38:32.531Z,1.02
2018-05-03T15:41:00.000Z,1.00
2018-05-03T15:43:27.493Z,1.10
2018-05-03T15:45:54.969Z,0.90
2018-05-03T15:48:23.240Z,1.00
2018-05-03T15:50:50.866Z,0.63
2018-05-03T15:53:18.357Z,0.93
2018-05-03T15:55:45.867Z,0.87
2018-05-03T15:58:13.318Z,0.80
2018-05-03T16:00:40.788Z,0.70
2018-05-03T16:03:08.283Z,0.77
2018-05-03T16:05:36.533Z,0.73
2018-05-03T16:08:04.072Z,1.10
2018-05-03T16:10:31.533Z,0.70
2018-05-03T16:12:59.780Z,0.53
2018-05-03T16:15:27.240Z,0.87
2018-05-03T16:17:54.771Z,0.60
2018-05-03T16:20:22.246Z,0.70
2018-05-03T16:22:49.712Z,0.63
2018-05-03T16:25:17.191Z,0.53
2018-05-03T16:27:44.660Z,0.50
2018-05-03T16:30:12.147Z,0.60
2018-05-03T16:32:39.621Z,0.77
2018-05-03T16:35:07.112Z,0.80
2018-05-03T16:37:34.582Z,0.70
2018-05-03T16:40:02.085Z,0.80
2018-05-03T16:42:30.377Z,0.60
2018-05-03T16:44:58.699Z,0.77
2018-05-03T16:47:26.170Z,0.90
2018-05-03T16:49:53.711Z,0.87
2018-05-03T16:52:21.989Z,0.80
2018-05-03T16:54:49.606Z,0.77
2018-05-03T16:57:17.093Z,1.00
2018-05-03T16:59:44.584Z,1.00
2018-05-03T17:02:12.055Z,0.83
2018-05-03T17:04:39.545Z,0.73
2018-05-03T17:07:07.003Z,0.60
2018-05-03T17:09:34.479Z,1.37
2018-05-03T17:12:01.931Z,1.10
2018-05-03T17:14:29.429Z,0.97
2018-05-03T17:16:57.115Z,0.90
2018-05-03T17:19:24.679Z,0.90
2018-05-03T17:21:52.142Z,0.83
2018-05-03T17:24:19.628Z,0.67
2018-05-03T17:26:47.868Z,0.80
2018-05-03T17:29:15.421Z,0.90
2018-05-03T17:31:42.894Z,0.83
2018-05-03T17:36:40.106Z,1.00
2018-05-03T17:39:07.617Z,0.80
2018-05-03T17:41:35.070Z,0.90
2018-05-03T17:44:02.632Z,0.90
2018-05-03T17:46:30.112Z,0.90
2018-05-03T17:48:57.632Z,0.93
2018-05-03T17:51:25.192Z,0.73
2018-05-03T17:53:52.821Z,0.90
2018-05-03T17:56:20.326Z,1.10
2018-05-03T17:58:48.586Z,1.00
2018-05-03T18:01:16.157Z,0.77
2018-05-03T18:03:43.627Z,1.00
2018-05-03T18:06:11.155Z,0.83
2018-05-03T18:08:38.649Z,0.97
2018-05-03T18:11:07.196Z,0.70
2018-05-03T18:13:34.661Z,1.23
2018-05-03T18:16:02.188Z,0.93
2018-05-03T18:18:29.704Z,0.87
2018-05-03T18:20:57.972Z,0.90
2018-05-03T18:23:25.443Z,0.80
2018-05-03T18:25:52.927Z,0.93
2018-05-03T18:28:20.399Z,0.73
2018-05-03T18:30:47.885Z,0.77
2018-05-03T18:33:15.350Z,1.00
2018-05-03T18:35:42.836Z,0.87
2018-05-03T18:38:11.154Z,1.10
2018-05-03T18:40:38.637Z,1.10
2018-05-03T18:43:06.259Z,1.33
2018-05-03T18:45:33.742Z,0.87
2018-05-03T18:48:02.014Z,0.90
2018-05-03T18:50:29.512Z,1.03
2018-05-03T18:52:57.830Z,1.00
2018-05-03T18:55:25.333Z,0.90
2018-05-03T18:57:52.839Z,1.07
2018-05-03T19:00:21.106Z,1.00
2018-05-03T19:02:48.629Z,0.93
2018-05-03T19:05:16.134Z,1.10
2018-05-03T19:07:43.599Z,0.93
2018-05-03T19:10:11.112Z,1.07
2018-05-03T19:12:39.344Z,1.23
2018-05-03T19:15:06.935Z,1.00
2018-05-03T19:17:35.375Z,1.33
2018-05-03T19:20:02.897Z,1.37
2018-05-03T19:22:30.620Z,0.87
2018-05-03T19:24:58.880Z,0.90
2018-05-03T19:27:26.384Z,1.30
2018-05-03T19:29:54.661Z,0.90
2018-05-03T19:32:22.993Z,1.17
2018-05-03T19:34:51.289Z,1.17
2018-05-03T19:37:18.770Z,1.23
2018-05-03T19:39:46.456Z,1.37
2018-05-03T19:42:14.168Z,1.30
2018-05-03T19:44:42.411Z,1.47
2018-05-03T19:47:09.918Z,0.93
2018-05-03T19:49:37.387Z,1.20
2018-05-03T19:52:04.881Z,1.40
2018-05-03T19:54:33.150Z,1.50
2018-05-03T19:57:00.628Z,1.50
2018-05-03T19:59:28.886Z,1.33
2018-05-03T20:01:56.402Z,1.40
2018-05-03T20:04:23.972Z,1.33
2018-05-03T20:06:51.480Z,1.50
2018-05-03T20:09:18.981Z,1.10
2018-05-03T20:11:47.490Z,0.90
2018-05-03T20:14:15.733Z,1.13
2018-05-03T20:16:43.223Z,0.90
2018-05-03T20:19:10.693Z,1.10
2018-05-03T20:21:38.186Z,1.03
2018-05-03T20:24:05.650Z,1.10
2018-05-03T20:26:33.142Z,1.20
2018-05-03T20:29:01.432Z,0.80
2018-05-03T20:31:28.914Z,1.23
2018-05-03T20:33:57.220Z,1.07
2018-05-03T20:36:24.985Z,1.00
2018-05-03T20:38:52.571Z,0.93
2018-05-03T20:41:20.069Z,0.87
2018-05-03T20:43:47.542Z,0.97
2018-05-03T20:46:15.066Z,0.70
2018-05-03T20:48:42.516Z,1.03
2018-05-03T20:51:10.019Z,0.90
2018-05-03T20:53:38.286Z,0.70
2018-05-03T20:56:05.789Z,0.77
2018-05-03T20:58:33.266Z,1.00
2018-05-03T21:01:00.770Z,1.10
2018-05-03T21:03:28.236Z,0.67
2018-05-03T21:05:55.725Z,0.90
2018-05-03T21:08:23.192Z,0.77
2018-05-03T21:10:50.989Z,0.80
2018-05-03T21:13:18.476Z,0.90
2018-05-03T21:15:46.705Z,0.80
2018-05-03T21:18:14.184Z,0.73
2018-05-03T21:20:41.659Z,0.60
2018-05-03T21:23:09.172Z,0.80
2018-05-03T21:25:37.395Z,0.77
2018-05-03T21:28:05.696Z,0.63
2018-05-03T21:30:33.174Z,0.60
2018-05-03T21:33:00.686Z,0.60
2018-05-03T21:35:28.149Z,0.57
2018-05-03T21:37:55.633Z,0.57
2018-05-03T21:40:23.144Z,0.70
2018-05-03T21:42:50.793Z,0.77
2018-05-03T21:45:19.027Z,0.77
2018-05-03T21:47:46.519Z,0.63
2018-05-03T21:50:13.989Z,0.80
2018-05-03T21:52:41.459Z,0.57
2018-05-03T21:55:08.977Z,0.83
2018-05-03T21:57:36.464Z,0.50
2018-05-03T22:00:03.955Z,0.50
2018-05-03T22:02:31.450Z,0.67
2018-05-03T22:04:58.919Z,0.83
2018-05-03T22:07:26.457Z,0.70
2018-05-03T22:09:53.937Z,0.80
2018-05-03T22:12:22.588Z,0.70
2018-05-03T22:14:50.128Z,0.90
2018-05-03T22:17:17.575Z,0.80
2018-05-03T22:19:45.040Z,0.93
2018-05-03T22:22:12.559Z,0.83
2018-05-03T22:24:40.801Z,0.90
2018-05-03T22:27:08.315Z,0.60
2018-05-03T22:29:35.772Z,0.77
2018-05-03T22:32:03.264Z,0.70
2018-05-03T22:34:31.499Z,0.60
2018-05-03T22:36:58.987Z,1.00
2018-05-03T22:39:26.501Z,0.77
2018-05-03T22:41:54.789Z,1.23
2018-05-03T22:44:22.318Z,0.60
2018-05-03T22:46:49.805Z,0.80
2018-05-03T22:49:17.268Z,0.80
2018-05-03T22:51:44.762Z,0.60
2018-05-03T22:54:12.233Z,0.83
2018-05-03T22:56:39.721Z,0.73
2018-05-03T22:59:08.852Z,0.80
2018-05-03T23:01:36.343Z,1.10
2018-05-03T23:04:03.803Z,0.67
2018-05-03T23:06:31.254Z,0.60
2018-05-03T23:08:58.744Z,0.63
2018-05-03T23:11:26.216Z,0.50
2018-05-03T23:13:53.715Z,0.60
2018-05-03T23:16:21.204Z,0.80
2018-05-03T23:18:48.805Z,0.53
2018-05-03T23:21:16.269Z,0.80
2018-05-03T23:23:44.520Z,0.80
2018-05-03T23:26:12.087Z,0.83
2018-05-03T23:28:39.593Z,0.90
2018-05-03T23:31:07.840Z,0.60
2018-05-03T23:33:35.319Z,1.13
2018-05-03T23:36:02.845Z,0.57
2018-05-03T23:38:30.347Z,0.90
2018-05-03T23:40:57.813Z,0.47
2018-05-03T23:43:25.286Z,0.67
2018-05-03T23:45:52.764Z,0.90
2018-05-03T23:48:20.271Z,0.77
2018-05-03T23:50:47.734Z,0.80
2018-05-03T23:53:15.227Z,0.80
2018-05-03T23:55:43.463Z,0.77
2018-05-03T23:58:10.943Z,0.57
